sensor_id;sensor_type;location;lat;lon;timestamp;P1;durP1;ratioP1;P2;durP2;ratioP2
51066;SDS011;37112;45.892;-123.962;2023-05-10T00:00:37;13.10;;;1.40;;
51066;SDS011;37112;45.892;-123.962;2023-05-10T00:03:11;10.90;;;1.30;;
51066;SDS011;37112;45.892;-123.962;2023-05-10T00:05:33;12.30;;;2.10;;
51066;SDS011;37112;45.892;-123.962;2023-05-10T00:08:08;8.60;;;1.50;;
51066;SDS011;37112;45.892;-123.962;2023-05-10T00:10:35;16.00;;;2.70;;
51066;SDS011;37112;45.892;-123.962;2023-05-10T00:13:10;13.80;;;2.60;;
51066;SDS011;37112;45.892;-123.962;2023-05-10T00:15:44;11.20;;;1.40;;
51066;SDS011;37112;45.892;-123.962;2023-05-10T00:18:08;12.60;;;2.40;;
51066;SDS011;37112;45.892;-123.962;2023-05-10T00:20:36;12.20;;;1.90;;
51066;SDS011;37112;45.892;-123.962;2023-05-10T00:23:11;13.10;;;1.30;;
51066;SDS011;37112;45.892;-123.962;2023-05-10T00:25:46;13.50;;;2.00;;
51066;SDS011;37112;45.892;-123.962;2023-05-10T00:28:03;21.10;;;3.00;;
51066;SDS011;37112;45.892;-123.962;2023-05-10T00:30:29;10.40;;;1.90;;
51066;SDS011;37112;45.892;-123.962;2023-05-10T00:32:52;16.50;;;1.70;;
51066;SDS011;37112;45.892;-123.962;2023-05-10T00:35:19;11.60;;;1.40;;
51066;SDS011;37112;45.892;-123.962;2023-05-10T00:37:41;21.80;;;2.50;;
51066;SDS011;37112;45.892;-123.962;2023-05-10T00:40:06;10.90;;;1.90;;
51066;SDS011;37112;45.892;-123.962;2023-05-10T00:42:42;17.30;;;1.60;;
51066;SDS011;37112;45.892;-123.962;2023-05-10T00:45:16;8.00;;;1.50;;
51066;SDS011;37112;45.892;-123.962;2023-05-10T00:47:51;6.40;;;1.30;;
51066;SDS011;37112;45.892;-123.962;2023-05-10T00:50:26;24.90;;;2.80;;
51066;SDS011;37112;45.892;-123.962;2023-05-10T00:53:01;12.10;;;2.10;;
51066;SDS011;37112;45.892;-123.962;2023-05-10T00:57:48;8.30;;;1.30;;
51066;SDS011;37112;45.892;-123.962;2023-05-10T01:00:23;14.50;;;2.20;;
51066;SDS011;37112;45.892;-123.962;2023-05-10T01:02:58;16.20;;;2.10;;
51066;SDS011;37112;45.892;-123.962;2023-05-10T01:05:26;18.10;;;2.90;;
51066;SDS011;37112;45.892;-123.962;2023-05-10T01:08:01;22.90;;;2.90;;
51066;SDS011;37112;45.892;-123.962;2023-05-10T01:10:46;14.30;;;2.20;;
51066;SDS011;37112;45.892;-123.962;2023-05-10T01:13:23;14.40;;;2.00;;
51066;SDS011;37112;45.892;-123.962;2023-05-10T01:16:04;28.00;;;3.90;;
51066;SDS011;37112;45.892;-123.962;2023-05-10T01:18:39;9.00;;;2.10;;
51066;SDS011;37112;45.892;-123.962;2023-05-10T01:21:17;18.70;;;2.20;;
51066;SDS011;37112;45.892;-123.962;2023-05-10T01:26:58;26.30;;;3.10;;
51066;SDS011;37112;45.892;-123.962;2023-05-10T01:29:52;18.80;;;3.30;;
51066;SDS011;37112;45.892;-123.962;2023-05-10T01:32:51;11.40;;;1.50;;
51066;SDS011;37112;45.892;-123.962;2023-05-10T01:35:26;22.80;;;3.00;;
51066;SDS011;37112;45.892;-123.962;2023-05-10T01:37:57;18.30;;;2.90;;
51066;SDS011;37112;45.892;-123.962;2023-05-10T01:40:39;9.40;;;2.00;;
51066;SDS011;37112;45.892;-123.962;2023-05-10T01:43:19;15.40;;;2.60;;
51066;SDS011;37112;45.892;-123.962;2023-05-10T01:46:02;12.40;;;1.40;;
51066;SDS011;37112;45.892;-123.962;2023-05-10T01:48:41;9.60;;;1.30;;
51066;SDS011;37112;45.892;-123.962;2023-05-10T01:51:24;3.10;;;0.70;;
51066;SDS011;37112;45.892;-123.962;2023-05-10T01:54:02;2.10;;;0.50;;
51066;SDS011;37112;45.892;-123.962;2023-05-10T01:56:42;1.50;;;0.60;;
51066;SDS011;37112;45.892;-123.962;2023-05-10T01:59:12;5.10;;;1.20;;
51066;SDS011;37112;45.892;-123.962;2023-05-10T02:01:49;12.10;;;2.10;;
51066;SDS011;37112;45.892;-123.962;2023-05-10T02:04:27;3.20;;;0.60;;
51066;SDS011;37112;45.892;-123.962;2023-05-10T02:07:02;5.10;;;0.60;;
51066;SDS011;37112;45.892;-123.962;2023-05-10T02:09:26;12.30;;;1.30;;
51066;SDS011;37112;45.892;-123.962;2023-05-10T02:12:02;5.60;;;0.80;;
51066;SDS011;37112;45.892;-123.962;2023-05-10T02:14:32;13.90;;;1.40;;
51066;SDS011;37112;45.892;-123.962;2023-05-10T02:17:09;9.80;;;1.30;;
51066;SDS011;37112;45.892;-123.962;2023-05-10T02:19:46;6.10;;;1.30;;
51066;SDS011;37112;45.892;-123.962;2023-05-10T02:22:22;5.90;;;0.80;;
51066;SDS011;37112;45.892;-123.962;2023-05-10T02:24:57;10.30;;;2.70;;
51066;SDS011;37112;45.892;-123.962;2023-05-10T02:27:32;6.00;;;1.10;;
51066;SDS011;37112;45.892;-123.962;2023-05-10T02:29:56;21.00;;;3.10;;
51066;SDS011;37112;45.892;-123.962;2023-05-10T02:32:26;6.20;;;1.60;;
51066;SDS011;37112;45.892;-123.962;2023-05-10T02:35:02;5.80;;;0.80;;
51066;SDS011;37112;45.892;-123.962;2023-05-10T02:37:31;3.40;;;1.00;;
51066;SDS011;37112;45.892;-123.962;2023-05-10T02:40:10;6.30;;;1.50;;
51066;SDS011;37112;45.892;-123.962;2023-05-10T02:42:47;10.30;;;1.80;;
51066;SDS011;37112;45.892;-123.962;2023-05-10T02:45:23;7.00;;;1.20;;
51066;SDS011;37112;45.892;-123.962;2023-05-10T02:47:59;6.10;;;1.40;;
51066;SDS011;37112;45.892;-123.962;2023-05-10T02:50:34;7.10;;;1.20;;
51066;SDS011;37112;45.892;-123.962;2023-05-10T02:53:17;23.50;;;1.60;;
51066;SDS011;37112;45.892;-123.962;2023-05-10T02:56:01;14.30;;;3.40;;
51066;SDS011;37112;45.892;-123.962;2023-05-10T02:58:45;5.00;;;1.10;;
51066;SDS011;37112;45.892;-123.962;2023-05-10T03:01:08;19.90;;;2.60;;
51066;SDS011;37112;45.892;-123.962;2023-05-10T03:03:43;14.70;;;1.90;;
51066;SDS011;37112;45.892;-123.962;2023-05-10T03:06:16;11.70;;;1.70;;
51066;SDS011;37112;45.892;-123.962;2023-05-10T03:08:53;20.70;;;3.70;;
51066;SDS011;37112;45.892;-123.962;2023-05-10T03:11:32;18.10;;;3.90;;
51066;SDS011;37112;45.892;-123.962;2023-05-10T03:14:16;22.80;;;2.60;;
51066;SDS011;37112;45.892;-123.962;2023-05-10T03:17:01;24.70;;;4.80;;
51066;SDS011;37112;45.892;-123.962;2023-05-10T03:19:32;12.70;;;2.70;;
51066;SDS011;37112;45.892;-123.962;2023-05-10T03:22:04;11.30;;;1.70;;
51066;SDS011;37112;45.892;-123.962;2023-05-10T03:24:43;7.70;;;1.50;;
51066;SDS011;37112;45.892;-123.962;2023-05-10T03:27:19;4.70;;;1.20;;
51066;SDS011;37112;45.892;-123.962;2023-05-10T03:29:47;4.50;;;1.30;;
51066;SDS011;37112;45.892;-123.962;2023-05-10T03:32:23;8.40;;;2.40;;
51066;SDS011;37112;45.892;-123.962;2023-05-10T03:35:01;9.80;;;1.20;;
51066;SDS011;37112;45.892;-123.962;2023-05-10T03:37:29;4.60;;;1.00;;
51066;SDS011;37112;45.892;-123.962;2023-05-10T03:39:49;5.70;;;1.30;;
51066;SDS011;37112;45.892;-123.962;2023-05-10T03:42:16;7.80;;;1.20;;
51066;SDS011;37112;45.892;-123.962;2023-05-10T03:44:36;4.50;;;1.30;;
51066;SDS011;37112;45.892;-123.962;2023-05-10T03:46:54;6.90;;;1.20;;
51066;SDS011;37112;45.892;-123.962;2023-05-10T03:49:19;6.50;;;1.20;;
51066;SDS011;37112;45.892;-123.962;2023-05-10T03:51:37;3.10;;;1.10;;
51066;SDS011;37112;45.892;-123.962;2023-05-10T03:54:12;3.60;;;0.80;;
51066;SDS011;37112;45.892;-123.962;2023-05-10T03:56:38;2.20;;;1.60;;
51066;SDS011;37112;45.892;-123.962;2023-05-10T03:59:11;5.50;;;1.10;;
51066;SDS011;37112;45.892;-123.962;2023-05-10T04:01:34;3.20;;;0.80;;
51066;SDS011;37112;45.892;-123.962;2023-05-10T04:04:09;3.20;;;1.10;;
51066;SDS011;37112;45.892;-123.962;2023-05-10T04:06:33;4.40;;;1.80;;
51066;SDS011;37112;45.892;-123.962;2023-05-10T04:08:52;7.70;;;1.70;;
51066;SDS011;37112;45.892;-123.962;2023-05-10T04:11:19;5.10;;;1.30;;
51066;SDS011;37112;45.892;-123.962;2023-05-10T04:13:52;3.80;;;1.50;;
51066;SDS011;37112;45.892;-123.962;2023-05-10T04:16:26;5.50;;;1.80;;
51066;SDS011;37112;45.892;-123.962;2023-05-10T04:18:54;5.50;;;1.60;;
51066;SDS011;37112;45.892;-123.962;2023-05-10T04:21:15;5.50;;;1.70;;
51066;SDS011;37112;45.892;-123.962;2023-05-10T04:23:49;5.10;;;1.50;;
51066;SDS011;37112;45.892;-123.962;2023-05-10T04:26:05;7.50;;;1.90;;
51066;SDS011;37112;45.892;-123.962;2023-05-10T04:28:40;5.40;;;1.70;;
51066;SDS011;37112;45.892;-123.962;2023-05-10T04:31:15;4.00;;;1.70;;
51066;SDS011;37112;45.892;-123.962;2023-05-10T04:33:33;2.80;;;1.30;;
51066;SDS011;37112;45.892;-123.962;2023-05-10T04:35:59;2.40;;;1.30;;
51066;SDS011;37112;45.892;-123.962;2023-05-10T04:38:25;3.20;;;1.20;;
51066;SDS011;37112;45.892;-123.962;2023-05-10T04:40:50;7.20;;;2.10;;
51066;SDS011;37112;45.892;-123.962;2023-05-10T04:43:25;7.20;;;2.70;;
51066;SDS011;37112;45.892;-123.962;2023-05-10T04:45:44;4.40;;;2.40;;
51066;SDS011;37112;45.892;-123.962;2023-05-10T04:48:01;5.10;;;2.50;;
51066;SDS011;37112;45.892;-123.962;2023-05-10T04:50:36;3.50;;;1.30;;
51066;SDS011;37112;45.892;-123.962;2023-05-10T04:53:00;5.20;;;1.40;;
51066;SDS011;37112;45.892;-123.962;2023-05-10T04:55:56;3.10;;;1.00;;
51066;SDS011;37112;45.892;-123.962;2023-05-10T04:58:21;3.80;;;1.00;;
51066;SDS011;37112;45.892;-123.962;2023-05-10T05:01:03;3.70;;;1.30;;
51066;SDS011;37112;45.892;-123.962;2023-05-10T05:03:39;3.50;;;1.00;;
51066;SDS011;37112;45.892;-123.962;2023-05-10T05:05:59;6.80;;;1.50;;
51066;SDS011;37112;45.892;-123.962;2023-05-10T05:08:27;11.00;;;1.00;;
51066;SDS011;37112;45.892;-123.962;2023-05-10T05:10:59;3.50;;;1.00;;
51066;SDS011;37112;45.892;-123.962;2023-05-10T05:13:35;3.90;;;1.40;;
51066;SDS011;37112;45.892;-123.962;2023-05-10T05:15:59;6.00;;;1.20;;
51066;SDS011;37112;45.892;-123.962;2023-05-10T05:18:28;12.60;;;2.30;;
51066;SDS011;37112;45.892;-123.962;2023-05-10T05:21:00;6.40;;;1.30;;
51066;SDS011;37112;45.892;-123.962;2023-05-10T05:23:34;5.30;;;1.50;;
51066;SDS011;37112;45.892;-123.962;2023-05-10T05:26:08;5.10;;;1.20;;
51066;SDS011;37112;45.892;-123.962;2023-05-10T05:28:48;11.40;;;2.10;;
51066;SDS011;37112;45.892;-123.962;2023-05-10T05:31:22;4.70;;;1.80;;
51066;SDS011;37112;45.892;-123.962;2023-05-10T05:33:56;4.60;;;2.20;;
51066;SDS011;37112;45.892;-123.962;2023-05-10T05:36:12;3.40;;;1.50;;
51066;SDS011;37112;45.892;-123.962;2023-05-10T05:38:46;4.90;;;1.50;;
51066;SDS011;37112;45.892;-123.962;2023-05-10T05:41:10;7.50;;;1.70;;
51066;SDS011;37112;45.892;-123.962;2023-05-10T05:43:45;6.90;;;1.30;;
51066;SDS011;37112;45.892;-123.962;2023-05-10T05:46:19;7.60;;;0.80;;
51066;SDS011;37112;45.892;-123.962;2023-05-10T05:48:40;5.90;;;1.40;;
51066;SDS011;37112;45.892;-123.962;2023-05-10T05:51:02;4.50;;;1.50;;
51066;SDS011;37112;45.892;-123.962;2023-05-10T05:53:26;2.00;;;1.00;;
51066;SDS011;37112;45.892;-123.962;2023-05-10T05:55:54;4.80;;;1.00;;
51066;SDS011;37112;45.892;-123.962;2023-05-10T05:58:20;6.20;;;1.50;;
51066;SDS011;37112;45.892;-123.962;2023-05-10T06:00:37;5.20;;;1.00;;
51066;SDS011;37112;45.892;-123.962;2023-05-10T06:03:03;6.60;;;1.00;;
51066;SDS011;37112;45.892;-123.962;2023-05-10T06:05:37;2.50;;;1.10;;
51066;SDS011;37112;45.892;-123.962;2023-05-10T06:08:11;3.20;;;1.30;;
51066;SDS011;37112;45.892;-123.962;2023-05-10T06:10:45;5.70;;;1.50;;
51066;SDS011;37112;45.892;-123.962;2023-05-10T06:13:05;2.80;;;0.80;;
51066;SDS011;37112;45.892;-123.962;2023-05-10T06:15:24;4.70;;;1.20;;
51066;SDS011;37112;45.892;-123.962;2023-05-10T06:20:09;1.40;;;1.00;;
51066;SDS011;37112;45.892;-123.962;2023-05-10T06:22:35;2.40;;;1.10;;
51066;SDS011;37112;45.892;-123.962;2023-05-10T06:24:59;4.10;;;1.00;;
51066;SDS011;37112;45.892;-123.962;2023-05-10T06:27:18;5.20;;;1.00;;
51066;SDS011;37112;45.892;-123.962;2023-05-10T06:29:39;5.20;;;1.10;;
51066;SDS011;37112;45.892;-123.962;2023-05-10T06:32:14;2.50;;;1.00;;
51066;SDS011;37112;45.892;-123.962;2023-05-10T06:34:36;4.40;;;1.90;;
51066;SDS011;37112;45.892;-123.962;2023-05-10T06:37:11;3.70;;;0.70;;
51066;SDS011;37112;45.892;-123.962;2023-05-10T06:39:28;4.30;;;0.80;;
51066;SDS011;37112;45.892;-123.962;2023-05-10T06:41:55;4.00;;;0.90;;
51066;SDS011;37112;45.892;-123.962;2023-05-10T06:44:31;3.50;;;0.90;;
51066;SDS011;37112;45.892;-123.962;2023-05-10T06:46:50;3.10;;;0.90;;
51066;SDS011;37112;45.892;-123.962;2023-05-10T06:49:14;1.40;;;0.90;;
51066;SDS011;37112;45.892;-123.962;2023-05-10T06:51:41;2.00;;;0.80;;
51066;SDS011;37112;45.892;-123.962;2023-05-10T06:56:35;4.70;;;1.10;;
51066;SDS011;37112;45.892;-123.962;2023-05-10T06:59:04;1.30;;;0.70;;
51066;SDS011;37112;45.892;-123.962;2023-05-10T07:01:39;1.90;;;0.90;;
51066;SDS011;37112;45.892;-123.962;2023-05-10T07:04:15;2.30;;;0.80;;
51066;SDS011;37112;45.892;-123.962;2023-05-10T07:06:37;6.30;;;0.80;;
51066;SDS011;37112;45.892;-123.962;2023-05-10T07:09:10;1.80;;;0.90;;
51066;SDS011;37112;45.892;-123.962;2023-05-10T07:11:32;5.40;;;1.00;;
51066;SDS011;37112;45.892;-123.962;2023-05-10T07:14:06;8.30;;;1.40;;
51066;SDS011;37112;45.892;-123.962;2023-05-10T07:16:40;1.60;;;0.90;;
51066;SDS011;37112;45.892;-123.962;2023-05-10T07:19:04;6.30;;;1.20;;
51066;SDS011;37112;45.892;-123.962;2023-05-10T07:21:38;2.40;;;1.00;;
51066;SDS011;37112;45.892;-123.962;2023-05-10T07:24:05;3.20;;;1.10;;
51066;SDS011;37112;45.892;-123.962;2023-05-10T07:26:40;7.40;;;1.20;;
51066;SDS011;37112;45.892;-123.962;2023-05-10T07:29:15;2.80;;;1.00;;
51066;SDS011;37112;45.892;-123.962;2023-05-10T07:31:49;1.80;;;0.90;;
51066;SDS011;37112;45.892;-123.962;2023-05-10T07:34:25;3.70;;;1.30;;
51066;SDS011;37112;45.892;-123.962;2023-05-10T07:36:49;1.50;;;0.90;;
51066;SDS011;37112;45.892;-123.962;2023-05-10T07:39:26;4.30;;;1.10;;
51066;SDS011;37112;45.892;-123.962;2023-05-10T07:42:00;7.40;;;1.30;;
51066;SDS011;37112;45.892;-123.962;2023-05-10T07:44:23;2.20;;;0.70;;
51066;SDS011;37112;45.892;-123.962;2023-05-10T07:46:45;5.30;;;1.10;;
51066;SDS011;37112;45.892;-123.962;2023-05-10T07:49:19;1.80;;;1.10;;
51066;SDS011;37112;45.892;-123.962;2023-05-10T07:51:54;3.10;;;1.00;;
51066;SDS011;37112;45.892;-123.962;2023-05-10T07:54:20;4.30;;;1.30;;
51066;SDS011;37112;45.892;-123.962;2023-05-10T07:56:58;0.80;;;0.80;;
51066;SDS011;37112;45.892;-123.962;2023-05-10T07:59:32;3.60;;;1.20;;
51066;SDS011;37112;45.892;-123.962;2023-05-10T08:02:06;3.60;;;0.90;;
51066;SDS011;37112;45.892;-123.962;2023-05-10T08:04:28;2.20;;;0.90;;
51066;SDS011;37112;45.892;-123.962;2023-05-10T08:07:22;2.80;;;1.10;;
51066;SDS011;37112;45.892;-123.962;2023-05-10T08:09:57;3.10;;;1.00;;
51066;SDS011;37112;45.892;-123.962;2023-05-10T08:12:31;2.20;;;0.90;;
51066;SDS011;37112;45.892;-123.962;2023-05-10T08:15:07;4.60;;;1.00;;
51066;SDS011;37112;45.892;-123.962;2023-05-10T08:17:44;2.40;;;0.90;;
51066;SDS011;37112;45.892;-123.962;2023-05-10T08:20:21;4.60;;;1.30;;
51066;SDS011;37112;45.892;-123.962;2023-05-10T08:22:55;2.00;;;1.00;;
51066;SDS011;37112;45.892;-123.962;2023-05-10T08:25:18;1.70;;;1.40;;
51066;SDS011;37112;45.892;-123.962;2023-05-10T08:27:52;2.10;;;1.20;;
51066;SDS011;37112;45.892;-123.962;2023-05-10T08:30:27;4.20;;;1.10;;
51066;SDS011;37112;45.892;-123.962;2023-05-10T08:33:00;1.60;;;0.90;;
51066;SDS011;37112;45.892;-123.962;2023-05-10T08:35:34;2.70;;;1.10;;
51066;SDS011;37112;45.892;-123.962;2023-05-10T08:37:57;3.80;;;0.90;;
51066;SDS011;37112;45.892;-123.962;2023-05-10T08:40:21;2.70;;;1.10;;
51066;SDS011;37112;45.892;-123.962;2023-05-10T08:42:58;2.90;;;0.70;;
51066;SDS011;37112;45.892;-123.962;2023-05-10T08:45:36;4.90;;;2.30;;
51066;SDS011;37112;45.892;-123.962;2023-05-10T08:48:02;4.20;;;0.90;;
51066;SDS011;37112;45.892;-123.962;2023-05-10T08:50:39;4.50;;;1.00;;
51066;SDS011;37112;45.892;-123.962;2023-05-10T08:53:16;2.40;;;1.00;;
51066;SDS011;37112;45.892;-123.962;2023-05-10T08:55:43;3.10;;;0.90;;
51066;SDS011;37112;45.892;-123.962;2023-05-10T08:58:06;3.70;;;0.90;;
51066;SDS011;37112;45.892;-123.962;2023-05-10T09:02:52;4.40;;;1.10;;
51066;SDS011;37112;45.892;-123.962;2023-05-10T09:05:20;4.70;;;1.40;;
51066;SDS011;37112;45.892;-123.962;2023-05-10T09:07:55;3.20;;;0.80;;
51066;SDS011;37112;45.892;-123.962;2023-05-10T09:10:20;4.10;;;0.80;;
51066;SDS011;37112;45.892;-123.962;2023-05-10T09:13:17;6.50;;;1.30;;
51066;SDS011;37112;45.892;-123.962;2023-05-10T09:15:54;2.00;;;1.00;;
51066;SDS011;37112;45.892;-123.962;2023-05-10T09:18:48;3.30;;;1.00;;
51066;SDS011;37112;45.892;-123.962;2023-05-10T09:21:17;2.50;;;1.00;;
51066;SDS011;37112;45.892;-123.962;2023-05-10T09:23:52;4.30;;;0.90;;
51066;SDS011;37112;45.892;-123.962;2023-05-10T09:26:27;6.70;;;1.10;;
51066;SDS011;37112;45.892;-123.962;2023-05-10T09:28:52;3.30;;;1.00;;
51066;SDS011;37112;45.892;-123.962;2023-05-10T09:31:27;1.20;;;0.80;;
51066;SDS011;37112;45.892;-123.962;2023-05-10T09:34:08;1.50;;;0.60;;
51066;SDS011;37112;45.892;-123.962;2023-05-10T09:36:53;2.30;;;0.80;;
51066;SDS011;37112;45.892;-123.962;2023-05-10T09:39:35;2.10;;;0.70;;
51066;SDS011;37112;45.892;-123.962;2023-05-10T09:42:04;5.00;;;0.90;;
51066;SDS011;37112;45.892;-123.962;2023-05-10T09:44:39;4.20;;;0.80;;
51066;SDS011;37112;45.892;-123.962;2023-05-10T09:47:16;2.30;;;0.80;;
51066;SDS011;37112;45.892;-123.962;2023-05-10T09:49:51;2.30;;;0.80;;
51066;SDS011;37112;45.892;-123.962;2023-05-10T09:52:29;3.10;;;0.80;;
51066;SDS011;37112;45.892;-123.962;2023-05-10T09:55:15;12.80;;;1.00;;
51066;SDS011;37112;45.892;-123.962;2023-05-10T09:57:58;4.80;;;0.70;;
51066;SDS011;37112;45.892;-123.962;2023-05-10T10:00:37;1.60;;;0.60;;
51066;SDS011;37112;45.892;-123.962;2023-05-10T10:03:16;0.90;;;0.80;;
51066;SDS011;37112;45.892;-123.962;2023-05-10T10:05:51;1.80;;;0.60;;
51066;SDS011;37112;45.892;-123.962;2023-05-10T10:08:25;1.40;;;0.80;;
51066;SDS011;37112;45.892;-123.962;2023-05-10T10:11:01;2.20;;;0.60;;
51066;SDS011;37112;45.892;-123.962;2023-05-10T10:13:36;1.40;;;0.80;;
51066;SDS011;37112;45.892;-123.962;2023-05-10T10:16:10;1.60;;;0.80;;
51066;SDS011;37112;45.892;-123.962;2023-05-10T10:18:44;2.80;;;1.20;;
51066;SDS011;37112;45.892;-123.962;2023-05-10T10:21:41;2.40;;;1.00;;
51066;SDS011;37112;45.892;-123.962;2023-05-10T10:24:04;5.60;;;1.10;;
51066;SDS011;37112;45.892;-123.962;2023-05-10T10:26:38;1.40;;;0.80;;
51066;SDS011;37112;45.892;-123.962;2023-05-10T10:29:15;3.50;;;0.80;;
51066;SDS011;37112;45.892;-123.962;2023-05-10T10:31:57;4.60;;;0.90;;
51066;SDS011;37112;45.892;-123.962;2023-05-10T10:34:41;4.20;;;0.80;;
51066;SDS011;37112;45.892;-123.962;2023-05-10T10:37:14;2.60;;;1.20;;
51066;SDS011;37112;45.892;-123.962;2023-05-10T10:39:50;3.60;;;1.00;;
51066;SDS011;37112;45.892;-123.962;2023-05-10T10:42:45;2.90;;;0.80;;
51066;SDS011;37112;45.892;-123.962;2023-05-10T10:45:20;2.10;;;0.80;;
51066;SDS011;37112;45.892;-123.962;2023-05-10T10:50:58;1.00;;;0.70;;
51066;SDS011;37112;45.892;-123.962;2023-05-10T10:53:22;3.00;;;0.90;;
51066;SDS011;37112;45.892;-123.962;2023-05-10T10:56:09;2.60;;;2.00;;
51066;SDS011;37112;45.892;-123.962;2023-05-10T10:58:37;1.40;;;0.70;;
51066;SDS011;37112;45.892;-123.962;2023-05-10T11:01:15;2.30;;;1.90;;
51066;SDS011;37112;45.892;-123.962;2023-05-10T11:06:50;1.10;;;0.70;;
51066;SDS011;37112;45.892;-123.962;2023-05-10T11:09:40;1.50;;;0.70;;
51066;SDS011;37112;45.892;-123.962;2023-05-10T11:12:14;1.90;;;0.80;;
51066;SDS011;37112;45.892;-123.962;2023-05-10T11:14:52;1.70;;;0.80;;
51066;SDS011;37112;45.892;-123.962;2023-05-10T11:17:30;5.00;;;0.90;;
51066;SDS011;37112;45.892;-123.962;2023-05-10T11:20:09;1.20;;;0.80;;
51066;SDS011;37112;45.892;-123.962;2023-05-10T11:22:51;3.40;;;0.90;;
51066;SDS011;37112;45.892;-123.962;2023-05-10T11:25:28;0.80;;;0.70;;
51066;SDS011;37112;45.892;-123.962;2023-05-10T11:28:03;0.90;;;0.70;;
51066;SDS011;37112;45.892;-123.962;2023-05-10T11:30:40;1.90;;;0.70;;
51066;SDS011;37112;45.892;-123.962;2023-05-10T11:33:19;1.90;;;0.60;;
51066;SDS011;37112;45.892;-123.962;2023-05-10T11:35:53;0.50;;;0.50;;
51066;SDS011;37112;45.892;-123.962;2023-05-10T11:38:27;0.80;;;0.60;;
51066;SDS011;37112;45.892;-123.962;2023-05-10T11:40:49;1.50;;;0.70;;
51066;SDS011;37112;45.892;-123.962;2023-05-10T11:43:36;2.20;;;1.10;;
51066;SDS011;37112;45.892;-123.962;2023-05-10T11:46:11;2.40;;;0.60;;
51066;SDS011;37112;45.892;-123.962;2023-05-10T11:48:47;2.60;;;1.10;;
51066;SDS011;37112;45.892;-123.962;2023-05-10T11:51:29;1.40;;;1.30;;
51066;SDS011;37112;45.892;-123.962;2023-05-10T11:54:07;0.60;;;0.60;;
51066;SDS011;37112;45.892;-123.962;2023-05-10T11:56:41;1.60;;;0.80;;
51066;SDS011;37112;45.892;-123.962;2023-05-10T11:59:15;1.60;;;0.80;;
51066;SDS011;37112;45.892;-123.962;2023-05-10T12:01:50;0.80;;;0.80;;
51066;SDS011;37112;45.892;-123.962;2023-05-10T12:04:24;2.00;;;1.00;;
51066;SDS011;37112;45.892;-123.962;2023-05-10T12:07:00;1.70;;;0.60;;
51066;SDS011;37112;45.892;-123.962;2023-05-10T12:09:26;1.50;;;0.80;;
51066;SDS011;37112;45.892;-123.962;2023-05-10T12:12:11;1.10;;;0.70;;
51066;SDS011;37112;45.892;-123.962;2023-05-10T12:14:51;1.00;;;0.90;;
51066;SDS011;37112;45.892;-123.962;2023-05-10T12:17:29;2.60;;;0.80;;
51066;SDS011;37112;45.892;-123.962;2023-05-10T12:20:15;2.70;;;1.20;;
51066;SDS011;37112;45.892;-123.962;2023-05-10T12:22:52;5.40;;;1.20;;
51066;SDS011;37112;45.892;-123.962;2023-05-10T12:25:29;2.50;;;0.90;;
51066;SDS011;37112;45.892;-123.962;2023-05-10T12:28:06;1.70;;;0.80;;
51066;SDS011;37112;45.892;-123.962;2023-05-10T12:30:41;1.70;;;0.80;;
51066;SDS011;37112;45.892;-123.962;2023-05-10T12:33:07;1.70;;;0.70;;
51066;SDS011;37112;45.892;-123.962;2023-05-10T12:35:46;1.40;;;0.70;;
51066;SDS011;37112;45.892;-123.962;2023-05-10T12:38:36;1.40;;;1.00;;
51066;SDS011;37112;45.892;-123.962;2023-05-10T12:41:11;1.10;;;0.70;;
51066;SDS011;37112;45.892;-123.962;2023-05-10T12:43:45;0.90;;;0.80;;
51066;SDS011;37112;45.892;-123.962;2023-05-10T12:46:20;1.50;;;0.80;;
51066;SDS011;37112;45.892;-123.962;2023-05-10T12:48:50;1.60;;;1.20;;
51066;SDS011;37112;45.892;-123.962;2023-05-10T12:51:29;1.80;;;1.20;;
51066;SDS011;37112;45.892;-123.962;2023-05-10T12:53:55;1.50;;;0.80;;
51066;SDS011;37112;45.892;-123.962;2023-05-10T12:56:22;3.80;;;1.40;;
51066;SDS011;37112;45.892;-123.962;2023-05-10T12:58:58;1.50;;;0.90;;
51066;SDS011;37112;45.892;-123.962;2023-05-10T13:01:32;1.20;;;1.10;;
51066;SDS011;37112;45.892;-123.962;2023-05-10T13:04:07;1.20;;;0.70;;
51066;SDS011;37112;45.892;-123.962;2023-05-10T13:06:41;2.20;;;1.60;;
51066;SDS011;37112;45.892;-123.962;2023-05-10T13:09:15;3.30;;;0.80;;
51066;SDS011;37112;45.892;-123.962;2023-05-10T13:11:48;1.50;;;1.00;;
51066;SDS011;37112;45.892;-123.962;2023-05-10T13:14:15;3.50;;;1.10;;
51066;SDS011;37112;45.892;-123.962;2023-05-10T13:16:48;0.90;;;0.80;;
51066;SDS011;37112;45.892;-123.962;2023-05-10T13:19:12;2.70;;;1.30;;
51066;SDS011;37112;45.892;-123.962;2023-05-10T13:21:46;5.20;;;1.00;;
51066;SDS011;37112;45.892;-123.962;2023-05-10T13:24:33;1.00;;;0.80;;
51066;SDS011;37112;45.892;-123.962;2023-05-10T13:27:07;2.70;;;1.30;;
51066;SDS011;37112;45.892;-123.962;2023-05-10T13:29:41;2.50;;;0.90;;
51066;SDS011;37112;45.892;-123.962;2023-05-10T13:32:15;3.30;;;0.90;;
51066;SDS011;37112;45.892;-123.962;2023-05-10T13:34:49;1.10;;;0.80;;
51066;SDS011;37112;45.892;-123.962;2023-05-10T13:37:23;1.90;;;0.70;;
51066;SDS011;37112;45.892;-123.962;2023-05-10T13:39:56;1.40;;;0.80;;
51066;SDS011;37112;45.892;-123.962;2023-05-10T13:42:32;1.00;;;0.80;;
51066;SDS011;37112;45.892;-123.962;2023-05-10T13:45:07;2.40;;;1.00;;
51066;SDS011;37112;45.892;-123.962;2023-05-10T13:47:42;1.00;;;0.90;;
51066;SDS011;37112;45.892;-123.962;2023-05-10T13:50:17;0.80;;;0.80;;
51066;SDS011;37112;45.892;-123.962;2023-05-10T13:52:47;1.20;;;1.10;;
51066;SDS011;37112;45.892;-123.962;2023-05-10T13:55:21;1.20;;;0.90;;
51066;SDS011;37112;45.892;-123.962;2023-05-10T13:57:57;1.20;;;0.90;;
51066;SDS011;37112;45.892;-123.962;2023-05-10T14:00:31;2.80;;;1.00;;
51066;SDS011;37112;45.892;-123.962;2023-05-10T14:03:06;2.40;;;0.90;;
51066;SDS011;37112;45.892;-123.962;2023-05-10T14:05:40;1.50;;;0.80;;
51066;SDS011;37112;45.892;-123.962;2023-05-10T14:08:16;3.00;;;0.80;;
51066;SDS011;37112;45.892;-123.962;2023-05-10T14:10:50;1.20;;;0.80;;
51066;SDS011;37112;45.892;-123.962;2023-05-10T14:13:26;2.10;;;0.90;;
51066;SDS011;37112;45.892;-123.962;2023-05-10T14:15:48;1.00;;;0.70;;
51066;SDS011;37112;45.892;-123.962;2023-05-10T14:18:24;1.00;;;0.70;;
51066;SDS011;37112;45.892;-123.962;2023-05-10T14:20:57;1.80;;;0.90;;
51066;SDS011;37112;45.892;-123.962;2023-05-10T14:23:26;1.40;;;0.80;;
51066;SDS011;37112;45.892;-123.962;2023-05-10T14:25:59;0.70;;;0.60;;
51066;SDS011;37112;45.892;-123.962;2023-05-10T14:28:32;2.40;;;0.80;;
51066;SDS011;37112;45.892;-123.962;2023-05-10T14:30:55;3.00;;;1.00;;
51066;SDS011;37112;45.892;-123.962;2023-05-10T14:33:29;4.40;;;0.90;;
51066;SDS011;37112;45.892;-123.962;2023-05-10T14:35:53;1.70;;;1.00;;
51066;SDS011;37112;45.892;-123.962;2023-05-10T14:38:29;2.40;;;0.90;;
51066;SDS011;37112;45.892;-123.962;2023-05-10T14:41:04;4.40;;;1.00;;
51066;SDS011;37112;45.892;-123.962;2023-05-10T14:43:37;2.30;;;0.90;;
51066;SDS011;37112;45.892;-123.962;2023-05-10T14:46:03;1.50;;;0.80;;
51066;SDS011;37112;45.892;-123.962;2023-05-10T14:48:27;1.50;;;1.00;;
51066;SDS011;37112;45.892;-123.962;2023-05-10T14:51:02;4.30;;;1.10;;
51066;SDS011;37112;45.892;-123.962;2023-05-10T14:53:36;1.50;;;1.00;;
51066;SDS011;37112;45.892;-123.962;2023-05-10T14:56:00;1.20;;;0.90;;